sensor_id;sensor_type;location;lat;lon;timestamp;pressure;altitude;pressure_sealevel;temperature;humidity
68871;BME280;55906;52.278;6.808;2023-12-22T00:02:20;99816.88;;;7.66;74.58
68871;BME280;55906;52.278;6.808;2023-12-22T00:04:48;99806.31;;;7.62;75.25
68871;BME280;55906;52.278;6.808;2023-12-22T00:07:16;99818.59;;;7.64;75.10
68871;BME280;55906;52.278;6.808;2023-12-22T00:09:45;99820.22;;;7.59;75.83
68871;BME280;55906;52.278;6.808;2023-12-22T00:12:12;99840.22;;;7.56;75.96
68871;BME280;55906;52.278;6.808;2023-12-22T00:14:38;99824.44;;;7.53;76.06
68871;BME280;55906;52.278;6.808;2023-12-22T00:17:05;99850.66;;;7.54;75.96
68871;BME280;55906;52.278;6.808;2023-12-22T00:19:32;99840.22;;;7.56;75.69
68871;BME280;55906;52.278;6.808;2023-12-22T00:21:59;99850.66;;;7.54;76.49
68871;BME280;55906;52.278;6.808;2023-12-22T00:24:27;99841.09;;;7.56;76.56
68871;BME280;55906;52.278;6.808;2023-12-22T00:26:54;99840.97;;;7.50;76.40
68871;BME280;55906;52.278;6.808;2023-12-22T00:29:20;99847.13;;;7.52;75.66
68871;BME280;55906;52.278;6.808;2023-12-22T00:31:47;99856.66;;;7.50;75.82
68871;BME280;55906;52.278;6.808;2023-12-22T00:34:14;99854.91;;;7.49;76.44
68871;BME280;55906;52.278;6.808;2023-12-22T00:36:40;99868.03;;;7.51;76.52
68871;BME280;55906;52.278;6.808;2023-12-22T00:39:07;99853.06;;;7.45;75.97
68871;BME280;55906;52.278;6.808;2023-12-22T00:41:35;99856.59;;;7.47;76.70
68871;BME280;55906;52.278;6.808;2023-12-22T00:44:02;99871.41;;;7.47;76.57
68871;BME280;55906;52.278;6.808;2023-12-22T00:46:29;99858.38;;;7.48;76.74
68871;BME280;55906;52.278;6.808;2023-12-22T00:48:55;99852.28;;;7.49;76.61
68871;BME280;55906;52.278;6.808;2023-12-22T00:51:22;99868.91;;;7.51;76.66
68871;BME280;55906;52.278;6.808;2023-12-22T00:53:49;99863.59;;;7.48;76.07
68871;BME280;55906;52.278;6.808;2023-12-22T00:56:16;99862.84;;;7.54;75.23
68871;BME280;55906;52.278;6.808;2023-12-22T00:58:44;99868.28;;;7.63;75.35
68871;BME280;55906;52.278;6.808;2023-12-22T01:01:10;99866.59;;;7.65;75.09
68871;BME280;55906;52.278;6.808;2023-12-22T01:03:37;99870.94;;;7.64;75.15
68871;BME280;55906;52.278;6.808;2023-12-22T01:06:04;99858.75;;;7.66;74.68
68871;BME280;55906;52.278;6.808;2023-12-22T01:08:30;99869.13;;;7.62;74.44
68871;BME280;55906;52.278;6.808;2023-12-22T01:10:57;99877.06;;;7.65;74.04
68871;BME280;55906;52.278;6.808;2023-12-22T01:13:24;99880.53;;;7.64;73.95
68871;BME280;55906;52.278;6.808;2023-12-22T01:15:52;99884.06;;;7.66;73.37
68871;BME280;55906;52.278;6.808;2023-12-22T01:18:19;99888.47;;;7.68;73.59
68871;BME280;55906;52.278;6.808;2023-12-22T01:20:46;99903.34;;;7.71;73.01
68871;BME280;55906;52.278;6.808;2023-12-22T01:23:14;99869.28;;;7.69;72.97
68871;BME280;55906;52.278;6.808;2023-12-22T01:25:41;99885.81;;;7.67;72.27
68871;BME280;55906;52.278;6.808;2023-12-22T01:28:07;99890.31;;;7.72;72.97
68871;BME280;55906;52.278;6.808;2023-12-22T01:30:34;99885.94;;;7.73;72.75
68871;BME280;55906;52.278;6.808;2023-12-22T01:33:02;99882.44;;;7.72;71.55
68871;BME280;55906;52.278;6.808;2023-12-22T01:35:29;99879.91;;;7.76;70.73
68871;BME280;55906;52.278;6.808;2023-12-22T01:37:56;99889.56;;;7.80;70.73
68871;BME280;55906;52.278;6.808;2023-12-22T01:40:23;99881.72;;;7.80;71.12
68871;BME280;55906;52.278;6.808;2023-12-22T01:42:49;99883.56;;;7.82;71.00
68871;BME280;55906;52.278;6.808;2023-12-22T01:45:17;99900.22;;;7.86;70.63
68871;BME280;55906;52.278;6.808;2023-12-22T01:47:44;99897.63;;;7.87;70.83
68871;BME280;55906;52.278;6.808;2023-12-22T01:50:14;99895.03;;;7.89;71.07
68871;BME280;55906;52.278;6.808;2023-12-22T01:52:42;99906.38;;;7.88;71.32
68871;BME280;55906;52.278;6.808;2023-12-22T01:55:10;99912.56;;;7.93;71.23
68871;BME280;55906;52.278;6.808;2023-12-22T01:57:38;99910.81;;;7.92;71.67
68871;BME280;55906;52.278;6.808;2023-12-22T02:00:07;99915.13;;;7.90;72.14
68871;BME280;55906;52.278;6.808;2023-12-22T02:02:34;99901.22;;;7.92;71.96
68871;BME280;55906;52.278;6.808;2023-12-22T02:05:00;99922.13;;;7.91;72.64
68871;BME280;55906;52.278;6.808;2023-12-22T02:07:30;99911.59;;;7.88;73.33
68871;BME280;55906;52.278;6.808;2023-12-22T02:09:56;99924.69;;;7.88;72.58
68871;BME280;55906;52.278;6.808;2023-12-22T02:12:24;99923.84;;;7.89;73.14
68871;BME280;55906;52.278;6.808;2023-12-22T02:14:50;99913.34;;;7.87;73.40
68871;BME280;55906;52.278;6.808;2023-12-22T02:17:21;99915.00;;;7.84;73.44
68871;BME280;55906;52.278;6.808;2023-12-22T02:19:50;99911.53;;;7.85;74.88
68871;BME280;55906;52.278;6.808;2023-12-22T02:22:17;99942.97;;;7.85;75.30
68871;BME280;55906;52.278;6.808;2023-12-22T02:24:45;99956.59;;;7.71;78.33
68871;BME280;55906;52.278;6.808;2023-12-22T02:27:21;99951.53;;;7.42;82.23
68871;BME280;55906;52.278;6.808;2023-12-22T02:29:52;99932.63;;;7.16;83.86
68871;BME280;55906;52.278;6.808;2023-12-22T02:32:23;99936.59;;;7.00;85.97
68871;BME280;55906;52.278;6.808;2023-12-22T02:34:53;99936.16;;;6.83;87.17
68871;BME280;55906;52.278;6.808;2023-12-22T02:37:22;99926.16;;;6.67;88.22
68871;BME280;55906;52.278;6.808;2023-12-22T02:39:52;99934.59;;;6.57;87.90
68871;BME280;55906;52.278;6.808;2023-12-22T02:42:19;99925.66;;;6.49;88.79
68871;BME280;55906;52.278;6.808;2023-12-22T02:44:49;99923.63;;;6.38;88.60
68871;BME280;55906;52.278;6.808;2023-12-22T02:47:16;99927.84;;;6.33;88.53
68871;BME280;55906;52.278;6.808;2023-12-22T02:49:43;99926.88;;;6.30;89.42
68871;BME280;55906;52.278;6.808;2023-12-22T02:52:09;99922.38;;;6.24;88.74
68871;BME280;55906;52.278;6.808;2023-12-22T02:54:36;99919.69;;;6.21;88.03
68871;BME280;55906;52.278;6.808;2023-12-22T02:57:06;99911.13;;;6.27;86.75
68871;BME280;55906;52.278;6.808;2023-12-22T02:59:33;99914.53;;;6.24;84.56
68871;BME280;55906;52.278;6.808;2023-12-22T03:02:00;99931.31;;;6.32;85.27
68871;BME280;55906;52.278;6.808;2023-12-22T03:04:27;99960.19;;;6.38;83.58
68871;BME280;55906;52.278;6.808;2023-12-22T03:06:53;99958.53;;;6.40;84.38
68871;BME280;55906;52.278;6.808;2023-12-22T03:09:20;99943.66;;;6.38;84.49
68871;BME280;55906;52.278;6.808;2023-12-22T03:11:47;99927.00;;;6.34;84.59
68871;BME280;55906;52.278;6.808;2023-12-22T03:14:15;99931.97;;;6.25;85.12
68871;BME280;55906;52.278;6.808;2023-12-22T03:16:41;99943.13;;;6.20;86.17
68871;BME280;55906;52.278;6.808;2023-12-22T03:19:08;99936.91;;;6.15;85.92
68871;BME280;55906;52.278;6.808;2023-12-22T03:21:35;99925.66;;;6.17;85.97
68871;BME280;55906;52.278;6.808;2023-12-22T03:24:02;99937.81;;;6.17;86.26
68871;BME280;55906;52.278;6.808;2023-12-22T03:26:28;99937.78;;;6.15;86.63
68871;BME280;55906;52.278;6.808;2023-12-22T03:28:55;99917.88;;;6.19;86.47
68871;BME280;55906;52.278;6.808;2023-12-22T03:31:23;99918.66;;;6.16;86.75
68871;BME280;55906;52.278;6.808;2023-12-22T03:33:50;99923.22;;;6.23;85.63
68871;BME280;55906;52.278;6.808;2023-12-22T03:36:16;99922.38;;;6.24;86.75
68871;BME280;55906;52.278;6.808;2023-12-22T03:38:43;99929.31;;;6.24;85.62
68871;BME280;55906;52.278;6.808;2023-12-22T03:41:10;99930.28;;;6.27;87.46
68871;BME280;55906;52.278;6.808;2023-12-22T03:43:36;99928.59;;;6.29;87.66
68871;BME280;55906;52.278;6.808;2023-12-22T03:46:03;99924.22;;;6.28;89.30
68871;BME280;55906;52.278;6.808;2023-12-22T03:48:31;99937.19;;;6.25;89.30
68871;BME280;55906;52.278;6.808;2023-12-22T03:50:58;99939.72;;;6.22;90.17
68871;BME280;55906;52.278;6.808;2023-12-22T03:53:25;99948.34;;;6.20;89.38
68871;BME280;55906;52.278;6.808;2023-12-22T03:55:51;99946.63;;;6.20;88.55
68871;BME280;55906;52.278;6.808;2023-12-22T03:58:18;99937.03;;;6.19;89.20
68871;BME280;55906;52.278;6.808;2023-12-22T04:00:47;99931.91;;;6.22;88.51
68871;BME280;55906;52.278;6.808;2023-12-22T04:03:14;99945.88;;;6.24;88.24
68871;BME280;55906;52.278;6.808;2023-12-22T04:05:42;99938.13;;;6.27;87.58
68871;BME280;55906;52.278;6.808;2023-12-22T04:08:09;99941.53;;;6.25;88.01
68871;BME280;55906;52.278;6.808;2023-12-22T04:10:36;99945.00;;;6.24;88.32
68871;BME280;55906;52.278;6.808;2023-12-22T04:13:03;99954.59;;;6.25;88.43
68871;BME280;55906;52.278;6.808;2023-12-22T04:15:30;99957.22;;;6.25;88.56
68871;BME280;55906;52.278;6.808;2023-12-22T04:17:56;99947.69;;;6.27;87.99
68871;BME280;55906;52.278;6.808;2023-12-22T04:20:23;99952.03;;;6.26;88.00
68871;BME280;55906;52.278;6.808;2023-12-22T04:22:52;99958.19;;;6.28;88.73
68871;BME280;55906;52.278;6.808;2023-12-22T04:25:18;99938.97;;;6.26;87.82
68871;BME280;55906;52.278;6.808;2023-12-22T04:27:47;99947.72;;;6.28;88.20
68871;BME280;55906;52.278;6.808;2023-12-22T04:30:14;99954.00;;;6.35;86.98
68871;BME280;55906;52.278;6.808;2023-12-22T04:32:41;99964.41;;;6.33;88.13
68871;BME280;55906;52.278;6.808;2023-12-22T04:35:08;99959.28;;;6.36;87.98
68871;BME280;55906;52.278;6.808;2023-12-22T04:37:34;99947.06;;;6.35;87.60
68871;BME280;55906;52.278;6.808;2023-12-22T04:40:03;99960.25;;;6.40;88.79
68871;BME280;55906;52.278;6.808;2023-12-22T04:42:30;99955.81;;;6.37;88.46
68871;BME280;55906;52.278;6.808;2023-12-22T04:44:56;99954.97;;;6.38;88.70
68871;BME280;55906;52.278;6.808;2023-12-22T04:47:24;99950.72;;;6.42;88.75
68871;BME280;55906;52.278;6.808;2023-12-22T04:49:51;99956.78;;;6.41;89.42
68871;BME280;55906;52.278;6.808;2023-12-22T04:52:17;99953.38;;;6.43;89.59
68871;BME280;55906;52.278;6.808;2023-12-22T04:54:44;99953.25;;;6.39;88.57
68871;BME280;55906;52.278;6.808;2023-12-22T04:57:12;99965.59;;;6.45;88.82
68871;BME280;55906;52.278;6.808;2023-12-22T04:59:39;99989.22;;;6.49;88.54
68871;BME280;55906;52.278;6.808;2023-12-22T05:02:06;99974.44;;;6.50;88.18
68871;BME280;55906;52.278;6.808;2023-12-22T05:04:32;99981.69;;;6.58;88.06
68871;BME280;55906;52.278;6.808;2023-12-22T05:06:59;99982.56;;;6.59;88.32
68871;BME280;55906;52.278;6.808;2023-12-22T05:09:26;99981.63;;;6.57;87.80
68871;BME280;55906;52.278;6.808;2023-12-22T05:11:54;99992.19;;;6.60;88.43
68871;BME280;55906;52.278;6.808;2023-12-22T05:14:22;99993.19;;;6.65;88.49
68871;BME280;55906;52.278;6.808;2023-12-22T05:16:48;99980.03;;;6.62;88.33
68871;BME280;55906;52.278;6.808;2023-12-22T05:19:16;99985.38;;;6.66;87.23
68871;BME280;55906;52.278;6.808;2023-12-22T05:21:43;99996.03;;;6.74;86.96
68871;BME280;55906;52.278;6.808;2023-12-22T05:24:09;100003.84;;;6.72;86.61
68871;BME280;55906;52.278;6.808;2023-12-22T05:26:36;99996.88;;;6.73;86.36
68871;BME280;55906;52.278;6.808;2023-12-22T05:29:03;100011.72;;;6.74;86.76
68871;BME280;55906;52.278;6.808;2023-12-22T05:31:31;100017.06;;;6.79;86.06
68871;BME280;55906;52.278;6.808;2023-12-22T05:33:58;100027.50;;;6.77;85.14
68871;BME280;55906;52.278;6.808;2023-12-22T05:36:24;100021.47;;;6.80;85.07
68871;BME280;55906;52.278;6.808;2023-12-22T05:38:51;100018.94;;;6.83;84.40
68871;BME280;55906;52.278;6.808;2023-12-22T05:41:18;100020.75;;;6.85;84.93
68871;BME280;55906;52.278;6.808;2023-12-22T05:43:45;100026.81;;;6.84;84.83
68871;BME280;55906;52.278;6.808;2023-12-22T05:46:11;100024.28;;;6.87;85.59
68871;BME280;55906;52.278;6.808;2023-12-22T05:48:39;100015.72;;;6.93;85.49
68871;BME280;55906;52.278;6.808;2023-12-22T05:51:06;100033.94;;;6.90;85.45
68871;BME280;55906;52.278;6.808;2023-12-22T05:53:39;100022.75;;;6.95;85.86
68871;BME280;55906;52.278;6.808;2023-12-22T05:56:16;100023.53;;;6.91;85.61
68871;BME280;55906;52.278;6.808;2023-12-22T05:58:43;100033.22;;;6.95;85.43
68871;BME280;55906;52.278;6.808;2023-12-22T06:01:14;100022.09;;;7.04;85.24
68871;BME280;55906;52.278;6.808;2023-12-22T06:03:42;100002.84;;;7.00;85.12
68871;BME280;55906;52.278;6.808;2023-12-22T06:06:09;100013.38;;;7.03;84.40
68871;BME280;55906;52.278;6.808;2023-12-22T06:08:36;100015.19;;;7.06;84.45
68871;BME280;55906;52.278;6.808;2023-12-22T06:11:03;100017.00;;;7.09;83.41
68871;BME280;55906;52.278;6.808;2023-12-22T06:13:30;100022.19;;;7.07;83.65
68871;BME280;55906;52.278;6.808;2023-12-22T06:15:57;100031.06;;;7.14;83.35
68871;BME280;55906;52.278;6.808;2023-12-22T06:18:24;100022.34;;;7.13;83.30
68871;BME280;55906;52.278;6.808;2023-12-22T06:20:52;100022.50;;;7.19;82.69
68871;BME280;55906;52.278;6.808;2023-12-22T06:23:20;100020.00;;;7.24;83.06
68871;BME280;55906;52.278;6.808;2023-12-22T06:25:46;100011.28;;;7.23;82.78
68871;BME280;55906;52.278;6.808;2023-12-22T06:28:13;100020.09;;;7.27;82.41
68871;BME280;55906;52.278;6.808;2023-12-22T06:30:42;100021.00;;;7.29;82.75
68871;BME280;55906;52.278;6.808;2023-12-22T06:33:09;100019.28;;;7.29;82.45
68871;BME280;55906;52.278;6.808;2023-12-22T06:35:36;100021.94;;;7.31;82.38
68871;BME280;55906;52.278;6.808;2023-12-22T06:38:04;100025.44;;;7.31;82.47
68871;BME280;55906;52.278;6.808;2023-12-22T06:40:31;100010.72;;;7.36;82.57
68871;BME280;55906;52.278;6.808;2023-12-22T06:42:58;100009.91;;;7.39;82.45
68871;BME280;55906;52.278;6.808;2023-12-22T06:45:25;100012.56;;;7.41;82.87
68871;BME280;55906;52.278;6.808;2023-12-22T06:47:52;100010.00;;;7.42;82.37
68871;BME280;55906;52.278;6.808;2023-12-22T06:50:19;100028.47;;;7.48;83.27
68871;BME280;55906;52.278;6.808;2023-12-22T06:52:46;100009.31;;;7.51;83.60
68871;BME280;55906;52.278;6.808;2023-12-22T06:55:14;100029.44;;;7.53;84.31
68871;BME280;55906;52.278;6.808;2023-12-22T06:57:41;100032.84;;;7.49;84.60
68871;BME280;55906;52.278;6.808;2023-12-22T07:00:09;100017.06;;;7.46;85.85
68871;BME280;55906;52.278;6.808;2023-12-22T07:02:36;100029.31;;;7.47;85.12
68871;BME280;55906;52.278;6.808;2023-12-22T07:05:34;100043.25;;;7.46;86.65
68871;BME280;55906;52.278;6.808;2023-12-22T07:08:05;100053.63;;;7.43;87.66
68871;BME280;55906;52.278;6.808;2023-12-22T07:10:33;100054.41;;;7.39;87.82
68871;BME280;55906;52.278;6.808;2023-12-22T07:13:00;100050.84;;;7.37;88.90
68871;BME280;55906;52.278;6.808;2023-12-22T07:15:27;100077.59;;;7.25;91.22
68871;BME280;55906;52.278;6.808;2023-12-22T07:17:54;100063.31;;;7.13;93.00
68871;BME280;55906;52.278;6.808;2023-12-22T07:20:21;100085.75;;;7.04;94.26
68871;BME280;55906;52.278;6.808;2023-12-22T07:22:48;100081.28;;;7.00;95.74
68871;BME280;55906;52.278;6.808;2023-12-22T07:25:16;100091.53;;;6.93;95.09
68871;BME280;55906;52.278;6.808;2023-12-22T07:27:46;100082.59;;;6.85;94.82
68871;BME280;55906;52.278;6.808;2023-12-22T07:30:13;100084.81;;;6.71;95.17
68871;BME280;55906;52.278;6.808;2023-12-22T07:32:43;100069.97;;;6.70;95.57
68871;BME280;55906;52.278;6.808;2023-12-22T07:35:13;100066.25;;;6.62;95.72
68871;BME280;55906;52.278;6.808;2023-12-22T07:37:39;100065.34;;;6.60;96.01
68871;BME280;55906;52.278;6.808;2023-12-22T07:40:07;100086.34;;;6.63;95.90
68871;BME280;55906;52.278;6.808;2023-12-22T07:42:34;100078.41;;;6.60;96.56
68871;BME280;55906;52.278;6.808;2023-12-22T07:45:04;100081.00;;;6.60;96.44
68871;BME280;55906;52.278;6.808;2023-12-22T07:47:31;100072.25;;;6.58;97.54
68871;BME280;55906;52.278;6.808;2023-12-22T07:49:58;100071.31;;;6.56;96.98
68871;BME280;55906;52.278;6.808;2023-12-22T07:52:25;100073.25;;;6.63;97.50
68871;BME280;55906;52.278;6.808;2023-12-22T07:54:52;100081.00;;;6.60;97.70
68871;BME280;55906;52.278;6.808;2023-12-22T07:57:19;100085.41;;;6.61;97.58
68871;BME280;55906;52.278;6.808;2023-12-22T07:59:45;100095.09;;;6.65;98.20
68871;BME280;55906;52.278;6.808;2023-12-22T08:02:13;100096.81;;;6.64;98.30
68871;BME280;55906;52.278;6.808;2023-12-22T08:04:40;100103.88;;;6.67;98.22
68871;BME280;55906;52.278;6.808;2023-12-22T08:07:07;100098.66;;;6.67;98.53
68871;BME280;55906;52.278;6.808;2023-12-22T08:09:34;100090.72;;;6.64;99.52
68871;BME280;55906;52.278;6.808;2023-12-22T08:12:01;100078.44;;;6.61;99.88
68871;BME280;55906;52.278;6.808;2023-12-22T08:14:27;100082.03;;;6.65;99.30
68871;BME280;55906;52.278;6.808;2023-12-22T08:16:54;100070.78;;;6.67;99.13
68871;BME280;55906;52.278;6.808;2023-12-22T08:19:22;100077.88;;;6.71;99.33
68871;BME280;55906;52.278;6.808;2023-12-22T08:21:52;100072.78;;;6.76;99.27
68871;BME280;55906;52.278;6.808;2023-12-22T08:24:19;100084.19;;;6.80;99.38
68871;BME280;55906;52.278;6.808;2023-12-22T08:26:46;100093.84;;;6.82;98.88
68871;BME280;55906;52.278;6.808;2023-12-22T08:29:13;100075.50;;;6.81;98.97
68871;BME280;55906;52.278;6.808;2023-12-22T08:31:41;100077.44;;;6.88;99.69
68871;BME280;55906;52.278;6.808;2023-12-22T08:34:09;100079.22;;;6.89;98.97
68871;BME280;55906;52.278;6.808;2023-12-22T08:36:37;100097.66;;;6.93;99.64
68871;BME280;55906;52.278;6.808;2023-12-22T08:39:04;100093.31;;;6.94;99.32
68871;BME280;55906;52.278;6.808;2023-12-22T08:41:31;100090.81;;;6.98;99.28
68871;BME280;55906;52.278;6.808;2023-12-22T08:44:01;100047.97;;;6.93;99.17
68871;BME280;55906;52.278;6.808;2023-12-22T08:46:28;100070.69;;;6.96;97.32
68871;BME280;55906;52.278;6.808;2023-12-22T08:48:56;100048.22;;;7.02;96.38
68871;BME280;55906;52.278;6.808;2023-12-22T08:51:24;100038.84;;;7.11;96.27
68871;BME280;55906;52.278;6.808;2023-12-22T08:53:52;100025.13;;;7.19;95.98
68871;BME280;55906;52.278;6.808;2023-12-22T08:56:20;100036.53;;;7.23;95.52
68871;BME280;55906;52.278;6.808;2023-12-22T08:58:47;100034.72;;;7.20;95.40
68871;BME280;55906;52.278;6.808;2023-12-22T09:01:15;100042.75;;;7.26;95.45
68871;BME280;55906;52.278;6.808;2023-12-22T09:03:42;100036.88;;;7.36;95.10
68871;BME280;55906;52.278;6.808;2023-12-22T09:06:13;100037.94;;;7.43;94.88
68871;BME280;55906;52.278;6.808;2023-12-22T09:08:40;100039.09;;;7.56;95.40
68871;BME280;55906;52.278;6.808;2023-12-22T09:11:10;100050.47;;;7.56;94.44
68871;BME280;55906;52.278;6.808;2023-12-22T09:13:37;100046.31;;;7.64;94.83
68871;BME280;55906;52.278;6.808;2023-12-22T09:16:04;100042.72;;;7.61;95.02
68871;BME280;55906;52.278;6.808;2023-12-22T09:18:31;100038.38;;;7.61;95.26
68871;BME280;55906;52.278;6.808;2023-12-22T09:20:59;100035.00;;;7.67;95.41
68871;BME280;55906;52.278;6.808;2023-12-22T09:23:25;100030.69;;;7.69;95.26
68871;BME280;55906;52.278;6.808;2023-12-22T09:25:52;100041.06;;;7.64;95.24
68871;BME280;55906;52.278;6.808;2023-12-22T09:28:21;100052.38;;;7.63;95.06
68871;BME280;55906;52.278;6.808;2023-12-22T09:30:47;100048.91;;;7.64;95.36
68871;BME280;55906;52.278;6.808;2023-12-22T09:33:14;100038.44;;;7.64;95.22
68871;BME280;55906;52.278;6.808;2023-12-22T09:35:41;100041.91;;;7.63;95.89
68871;BME280;55906;52.278;6.808;2023-12-22T09:38:09;100053.91;;;7.54;96.53
68871;BME280;55906;52.278;6.808;2023-12-22T09:40:37;100050.31;;;7.50;96.76
68871;BME280;55906;52.278;6.808;2023-12-22T09:43:06;100043.31;;;7.49;97.46
68871;BME280;55906;52.278;6.808;2023-12-22T09:45:35;100031.81;;;7.43;98.05
68871;BME280;55906;52.278;6.808;2023-12-22T09:48:03;100051.78;;;7.39;98.85
68871;BME280;55906;52.278;6.808;2023-12-22T09:50:32;100045.78;;;7.43;98.80
68871;BME280;55906;52.278;6.808;2023-12-22T09:53:00;100048.41;;;7.43;98.88
68871;BME280;55906;52.278;6.808;2023-12-22T09:55:31;100040.50;;;7.42;99.16
68871;BME280;55906;52.278;6.808;2023-12-22T09:58:00;100038.00;;;7.46;99.86
68871;BME280;55906;52.278;6.808;2023-12-22T10:00:28;100058.16;;;7.50;99.95
68871;BME280;55906;52.278;6.808;2023-12-22T10:02:57;100065.16;;;7.51;99.71
68871;BME280;55906;52.278;6.808;2023-12-22T10:05:23;100045.97;;;7.51;100.00
68871;BME280;55906;52.278;6.808;2023-12-22T10:07:50;100047.81;;;7.55;100.00
68871;BME280;55906;52.278;6.808;2023-12-22T10:10:18;100059.25;;;7.58;100.00
68871;BME280;55906;52.278;6.808;2023-12-22T10:12:45;100071.16;;;7.47;100.00
68871;BME280;55906;52.278;6.808;2023-12-22T10:15:12;100071.06;;;7.43;100.00
68871;BME280;55906;52.278;6.808;2023-12-22T10:17:39;100065.78;;;7.41;99.67
68871;BME280;55906;52.278;6.808;2023-12-22T10:20:09;100058.84;;;7.43;99.40
68871;BME280;55906;52.278;6.808;2023-12-22T10:22:36;100048.94;;;7.30;99.84
68871;BME280;55906;52.278;6.808;2023-12-22T10:25:03;100049.84;;;7.32;99.80
68871;BME280;55906;52.278;6.808;2023-12-22T10:27:32;100050.78;;;7.34;100.00
68871;BME280;55906;52.278;6.808;2023-12-22T10:29:59;100051.69;;;7.36;100.00
68871;BME280;55906;52.278;6.808;2023-12-22T10:32:26;100056.06;;;7.35;100.00
68871;BME280;55906;52.278;6.808;2023-12-22T10:34:53;100044.63;;;7.32;99.70
68871;BME280;55906;52.278;6.808;2023-12-22T10:37:21;100055.16;;;7.35;100.00
68871;BME280;55906;52.278;6.808;2023-12-22T10:39:52;100043.78;;;7.33;100.00
68871;BME280;55906;52.278;6.808;2023-12-22T10:42:18;100039.59;;;7.39;99.37
68871;BME280;55906;52.278;6.808;2023-12-22T10:44:46;100041.25;;;7.36;99.93
68871;BME280;55906;52.278;6.808;2023-12-22T10:47:13;100026.31;;;7.32;99.59
68871;BME280;55906;52.278;6.808;2023-12-22T10:49:40;100016.63;;;7.28;99.96
68871;BME280;55906;52.278;6.808;2023-12-22T10:52:10;100015.94;;;7.35;99.22
68871;BME280;55906;52.278;6.808;2023-12-22T10:54:42;100025.38;;;7.30;97.84
68871;BME280;55906;52.278;6.808;2023-12-22T10:57:10;100026.38;;;7.35;98.51
68871;BME280;55906;52.278;6.808;2023-12-22T10:59:40;100031.72;;;7.39;98.80
68871;BME280;55906;52.278;6.808;2023-12-22T11:02:15;100042.09;;;7.35;97.57
68871;BME280;55906;52.278;6.808;2023-12-22T11:04:47;100039.47;;;7.35;97.16
68871;BME280;55906;52.278;6.808;2023-12-22T11:07:14;100023.84;;;7.38;97.02
68871;BME280;55906;52.278;6.808;2023-12-22T11:09:44;100016.09;;;7.43;97.76
68871;BME280;55906;52.278;6.808;2023-12-22T11:12:15;100011.03;;;7.49;97.35
68871;BME280;55906;52.278;6.808;2023-12-22T11:14:44;100018.75;;;7.44;97.66
68871;BME280;55906;52.278;6.808;2023-12-22T11:17:17;100014.56;;;7.51;97.27
68871;BME280;55906;52.278;6.808;2023-12-22T11:19:47;100024.16;;;7.50;97.10
68871;BME280;55906;52.278;6.808;2023-12-22T11:22:16;100006.63;;;7.48;97.56
68871;BME280;55906;52.278;6.808;2023-12-22T11:24:46;100020.38;;;7.39;97.35
68871;BME280;55906;52.278;6.808;2023-12-22T11:27:16;100016.19;;;7.46;97.23
68871;BME280;55906;52.278;6.808;2023-12-22T11:29:45;100016.97;;;7.42;97.89
68871;BME280;55906;52.278;6.808;2023-12-22T11:32:15;100007.25;;;7.37;98.08
68871;BME280;55906;52.278;6.808;2023-12-22T11:34:42;100004.63;;;7.36;98.03
68871;BME280;55906;52.278;6.808;2023-12-22T11:37:11;100012.47;;;7.36;97.61
68871;BME280;55906;52.278;6.808;2023-12-22T11:39:38;99989.63;;;7.29;97.88
68871;BME280;55906;52.278;6.808;2023-12-22T11:42:10;99987.16;;;7.35;97.43
68871;BME280;55906;52.278;6.808;2023-12-22T11:44:38;99993.22;;;7.34;97.55
68871;BME280;55906;52.278;6.808;2023-12-22T11:47:06;99985.53;;;7.40;98.11
68871;BME280;55906;52.278;6.808;2023-12-22T11:49:33;99989.88;;;7.39;97.75
68871;BME280;55906;52.278;6.808;2023-12-22T11:52:09;99984.75;;;7.44;97.49
68871;BME280;55906;52.278;6.808;2023-12-22T11:54:47;99991.81;;;7.48;97.44
68871;BME280;55906;52.278;6.808;2023-12-22T11:57:35;99994.38;;;7.45;98.13
68871;BME280;55906;52.278;6.808;2023-12-22T12:00:07;99976.00;;;7.44;97.16
68871;BME280;55906;52.278;6.808;2023-12-22T12:02:40;99959.47;;;7.45;98.12
68871;BME280;55906;52.278;6.808;2023-12-22T12:05:08;99950.72;;;7.44;97.92
68871;BME280;55906;52.278;6.808;2023-12-22T12:07:40;99956.09;;;7.50;97.67
68871;BME280;55906;52.278;6.808;2023-12-22T12:10:10;99957.06;;;7.54;97.57
68871;BME280;55906;52.278;6.808;2023-12-22T12:12:38;99944.00;;;7.55;96.89
68871;BME280;55906;52.278;6.808;2023-12-22T12:15:07;99938.78;;;7.55;96.81
68871;BME280;55906;52.278;6.808;2023-12-22T12:17:38;99936.22;;;7.58;97.36
68871;BME280;55906;52.278;6.808;2023-12-22T12:20:07;99926.63;;;7.57;97.11
68871;BME280;55906;52.278;6.808;2023-12-22T12:22:35;99932.72;;;7.58;97.82
68871;BME280;55906;52.278;6.808;2023-12-22T12:25:07;99947.69;;;7.63;97.62
68871;BME280;55906;52.278;6.808;2023-12-22T12:27:35;99950.28;;;7.62;97.65
68871;BME280;55906;52.278;6.808;2023-12-22T12:30:11;99940.78;;;7.67;97.83
68871;BME280;55906;52.278;6.808;2023-12-22T12:32:41;99946.91;;;7.67;97.91
68871;BME280;55906;52.278;6.808;2023-12-22T12:35:09;99939.91;;;7.66;98.36
68871;BME280;55906;52.278;6.808;2023-12-22T12:37:36;99925.06;;;7.65;98.11
68871;BME280;55906;52.278;6.808;2023-12-22T12:40:07;99923.28;;;7.64;97.80
68871;BME280;55906;52.278;6.808;2023-12-22T12:42:36;99922.56;;;7.71;98.84
68871;BME280;55906;52.278;6.808;2023-12-22T12:45:04;99903.34;;;7.71;99.20
68871;BME280;55906;52.278;6.808;2023-12-22T12:47:32;99919.84;;;7.67;99.44
68871;BME280;55906;52.278;6.808;2023-12-22T12:50:00;99931.97;;;7.63;99.52
68871;BME280;55906;52.278;6.808;2023-12-22T12:52:27;99932.88;;;7.64;99.89
68871;BME280;55906;52.278;6.808;2023-12-22T12:54:54;99927.59;;;7.62;100.00
68871;BME280;55906;52.278;6.808;2023-12-22T12:57:24;99937.16;;;7.60;100.00
68871;BME280;55906;52.278;6.808;2023-12-22T12:59:51;99936.38;;;7.64;100.00
68871;BME280;55906;52.278;6.808;2023-12-22T13:02:18;99925.91;;;7.64;100.00
68871;BME280;55906;52.278;6.808;2023-12-22T13:04:47;99929.34;;;7.62;100.00
68871;BME280;55906;52.278;6.808;2023-12-22T13:07:23;99938.97;;;7.64;100.00
68871;BME280;55906;52.278;6.808;2023-12-22T13:09:50;99938.84;;;7.58;100.00